createdAt,value
2016-08-04T00:01:06.995Z,"    0"
2016-08-04T00:06:06.874Z,"    0"
2016-08-04T00:11:07.487Z,"    0"
2016-08-04T00:16:07.100Z,"    0"
2016-08-04T00:21:06.940Z,"    0"
2016-08-04T00:26:06.736Z,"    0"
2016-08-04T00:31:06.500Z,"    0"
2016-08-04T00:36:06.262Z,"    0"
2016-08-04T00:41:05.869Z,"    0"
2016-08-04T00:46:05.656Z,"    0"
2016-08-04T00:51:05.432Z,"    0"
2016-08-04T00:56:05.502Z,"    0"
2016-08-04T01:01:05.367Z,"    0"
2016-08-04T01:06:05.036Z,"    0"
2016-08-04T01:11:04.821Z,"    0"
2016-08-04T01:16:04.415Z,"    0"
2016-08-04T01:21:04.057Z,"    0"
2016-08-04T01:26:03.752Z,"    0"
2016-08-04T01:31:03.672Z,"    0"
2016-08-04T01:36:03.360Z,"    0"
2016-08-04T01:41:03.041Z,"    0"
2016-08-04T01:46:02.762Z,"    0"
2016-08-04T01:51:02.589Z,"    0"
2016-08-04T01:56:02.597Z,"    0"
2016-08-04T02:01:02.378Z,"    0"
2016-08-04T02:06:02.166Z,"    0"
2016-08-04T02:11:01.801Z,"    0"
2016-08-04T02:16:01.521Z,"    0"
2016-08-04T02:21:01.279Z,"    0"
2016-08-04T02:26:01.000Z,"    0"
2016-08-04T02:31:00.701Z,"    0"
2016-08-04T02:36:00.467Z,"    0"
2016-08-04T02:41:00.282Z,"    0"
2016-08-04T02:46:00.144Z,"    0"
2016-08-04T02:50:59.853Z,"    0"
2016-08-04T02:55:59.563Z,"    0"
2016-08-04T03:00:59.289Z,"    0"
2016-08-04T03:05:59.054Z,"    0"
2016-08-04T03:10:58.713Z,"    0"
2016-08-04T03:15:58.464Z,"    0"
2016-08-04T03:20:58.231Z,"    0"
2016-08-04T03:25:57.993Z,"    0"
2016-08-04T03:30:57.730Z,"    0"
2016-08-04T03:35:57.552Z,"    0"
2016-08-04T03:40:57.379Z,"    0"
2016-08-04T03:45:57.262Z,"    0"
2016-08-04T03:50:57.157Z,"    4"
2016-08-04T03:55:56.792Z,"    4"
2016-08-04T04:00:56.443Z,"    0"
2016-08-04T04:05:56.140Z,"    4"
2016-08-04T04:10:56.007Z,"    4"
2016-08-04T04:15:55.894Z,"    4"
2016-08-04T04:20:55.555Z,"    4"
2016-08-04T04:25:55.401Z,"    8"
2016-08-04T04:30:55.135Z,"   12"
2016-08-04T04:35:54.934Z,"   20"
2016-08-04T04:40:54.815Z,"   24"
2016-08-04T04:45:54.824Z,"   36"
2016-08-04T04:50:54.620Z,"   40"
2016-08-04T04:55:54.429Z,"   44"
2016-08-04T05:00:54.247Z,"   52"
2016-08-04T05:10:53.683Z,"   68"
2016-08-04T05:15:53.538Z,"   68"
2016-08-04T05:25:52.694Z,"   48"
2016-08-04T05:30:52.396Z,"   56"
2016-08-04T05:35:52.245Z,"   72"
2016-08-04T05:40:52.123Z,"   88"
2016-08-04T05:45:51.949Z,"  104"
2016-08-04T05:50:51.843Z,"  132"
2016-08-04T05:55:51.769Z,"  132"
2016-08-04T06:00:51.653Z,"  156"
2016-08-04T06:05:51.497Z,"  116"
2016-08-04T06:10:51.221Z,"  100"
2016-08-04T06:15:51.067Z,"  100"
2016-08-04T06:20:51.087Z,"  128"
2016-08-04T06:25:50.869Z,"  156"
2016-08-04T06:30:50.557Z,"  168"
2016-08-04T06:35:50.578Z,"  148"
2016-08-04T06:40:50.257Z,"  152"
2016-08-04T06:45:50.279Z,"  148"
2016-08-04T06:50:50.019Z,"  144"
2016-08-04T06:55:49.736Z,"  184"
2016-08-04T07:00:49.928Z,"  224"
2016-08-04T07:05:49.583Z,"  208"
2016-08-04T07:10:49.531Z,"  184"
2016-08-04T07:15:49.442Z,"  156"
2016-08-04T07:20:49.187Z,"  164"
2016-08-04T07:25:49.021Z,"  140"
2016-08-04T07:30:48.782Z,"  156"
2016-08-04T07:35:48.625Z,"  224"
2016-08-04T07:40:48.337Z,"  280"
2016-08-04T07:45:48.026Z,"  228"
2016-08-04T07:50:47.860Z,"  164"
2016-08-04T07:55:47.747Z,"  184"
2016-08-04T08:00:47.427Z,"  188"
2016-08-04T08:05:47.145Z,"  200"
2016-08-04T08:10:47.875Z,"  256"
2016-08-04T08:15:47.454Z,"  160"
2016-08-04T08:20:47.306Z,"   88"
2016-08-04T08:25:46.877Z,"  284"
2016-08-04T08:30:46.704Z,"  280"
2016-08-04T08:35:46.754Z,"  432"
2016-08-04T08:40:46.498Z,"  516"
2016-08-04T08:45:46.250Z,"  372"
2016-08-04T08:50:46.118Z,"  368"
2016-08-04T08:55:45.877Z,"  292"
2016-08-04T09:00:45.672Z,"  268"
2016-08-04T09:05:45.446Z,"  264"
2016-08-04T09:10:45.226Z,"  408"
2016-08-04T09:15:45.156Z,"  472"
2016-08-04T09:20:45.071Z,"  432"
2016-08-04T09:25:44.818Z,"  424"
2016-08-04T09:30:44.663Z,"  532"
2016-08-04T09:35:44.517Z,"  528"
2016-08-04T09:40:44.447Z,"  500"
2016-08-04T09:45:44.295Z,"  700"
2016-08-04T09:50:44.076Z,"  556"
2016-08-04T09:55:44.293Z,"  368"
2016-08-04T10:00:44.084Z,"  260"
2016-08-04T10:05:43.766Z,"  308"
2016-08-04T10:10:43.506Z,"  360"
2016-08-04T10:15:43.174Z,"  504"
2016-08-04T10:20:43.213Z,"  484"
2016-08-04T10:25:43.108Z,"  528"
2016-08-04T10:30:42.923Z,"  440"
2016-08-04T10:35:42.826Z,"  584"
2016-08-04T10:40:42.793Z,"  636"
2016-08-04T10:45:42.443Z,"  500"
2016-08-04T10:50:42.289Z,"  268"
2016-08-04T10:55:42.196Z,"  408"
2016-08-04T11:00:41.670Z,"  492"
2016-08-04T11:05:41.343Z,"  448"
2016-08-04T11:10:41.254Z,"  508"
2016-08-04T11:15:41.044Z,"  328"
2016-08-04T11:20:40.690Z,"  320"
2016-08-04T11:25:41.007Z,"  424"
2016-08-04T11:30:41.776Z,"  372"
2016-08-04T11:35:42.249Z,"  224"
2016-08-04T11:40:42.774Z,"  244"
2016-08-04T11:45:43.413Z,"  424"
2016-08-04T11:50:43.291Z,"  312"
2016-08-04T11:55:43.033Z,"  116"
2016-08-04T12:00:42.700Z,"  104"
2016-08-04T12:05:42.530Z,"  192"
2016-08-04T12:10:42.372Z,"  596"
2016-08-04T12:15:42.348Z,"  204"
2016-08-04T12:20:42.097Z,"   76"
2016-08-04T12:25:41.772Z,"  112"
2016-08-04T12:30:41.796Z,"   84"
2016-08-04T12:35:41.299Z,"  196"
2016-08-04T12:40:40.869Z,"  252"
2016-08-04T12:45:40.664Z,"  244"
2016-08-04T12:50:40.352Z,"  140"
2016-08-04T12:55:40.141Z,"   88"
2016-08-04T13:00:39.821Z,"  256"
2016-08-04T13:05:39.536Z,"  212"
2016-08-04T13:10:39.150Z,"  256"
2016-08-04T13:15:39.940Z,"  200"
2016-08-04T13:20:39.513Z,"  156"
2016-08-04T13:25:39.171Z,"  264"
2016-08-04T13:30:38.752Z,"  364"
2016-08-04T13:35:38.586Z,"  252"
2016-08-04T13:40:38.288Z,"  216"
2016-08-04T13:45:37.914Z,"  208"
2016-08-04T13:50:37.517Z,"  192"
2016-08-04T13:55:37.246Z,"  176"
2016-08-04T14:00:37.062Z,"  168"
2016-08-04T14:05:36.902Z,"  196"
2016-08-04T14:10:36.560Z,"  168"
2016-08-04T14:15:36.170Z,"  168"
2016-08-04T14:20:35.881Z,"  144"
2016-08-04T14:25:35.560Z,"  140"
2016-08-04T14:30:35.143Z,"  144"
2016-08-04T14:35:35.155Z,"  176"
2016-08-04T14:40:34.842Z,"  184"
2016-08-04T14:45:34.525Z,"  192"
2016-08-04T14:50:34.329Z,"  272"
2016-08-04T14:55:33.975Z,"  288"
2016-08-04T15:00:33.688Z,"  280"
2016-08-04T15:05:33.467Z,"  252"
2016-08-04T15:10:33.265Z,"  264"
2016-08-04T15:15:33.179Z,"  264"
2016-08-04T15:20:32.768Z,"  256"
2016-08-04T15:25:32.397Z,"  244"
2016-08-04T15:30:32.088Z,"  228"
2016-08-04T15:35:31.956Z,"  228"
2016-08-04T15:40:31.619Z,"  220"
2016-08-04T15:45:31.479Z,"  196"
2016-08-04T15:50:31.276Z,"  192"
2016-08-04T15:55:31.100Z,"  188"
2016-08-04T16:00:30.726Z,"  168"
2016-08-04T16:05:30.411Z,"  152"
2016-08-04T16:10:30.128Z,"  156"
2016-08-04T16:15:29.966Z,"  144"
2016-08-04T16:20:29.579Z,"  140"
2016-08-04T16:25:29.175Z,"  160"
2016-08-04T16:30:29.122Z,"  156"
2016-08-04T16:35:28.890Z,"  160"
2016-08-04T16:40:28.589Z,"  156"
2016-08-04T16:45:28.290Z,"  136"
2016-08-04T16:50:27.942Z,"  128"
2016-08-04T16:55:27.824Z,"  128"
2016-08-04T17:00:27.667Z,"  116"
2016-08-04T17:05:27.527Z,"  108"
2016-08-04T17:10:27.183Z,"  108"
2016-08-04T17:15:26.961Z,"  104"
2016-08-04T17:20:26.594Z,"  100"
2016-08-04T17:25:26.420Z,"   84"
2016-08-04T17:30:26.061Z,"   80"
2016-08-04T17:35:25.753Z,"   76"
2016-08-04T17:40:25.403Z,"   72"
2016-08-04T17:45:25.062Z,"   60"
2016-08-04T17:50:24.843Z,"   56"
2016-08-04T17:55:24.587Z,"   48"
2016-08-04T18:00:24.123Z,"   48"
2016-08-04T18:05:23.862Z,"   44"
2016-08-04T18:10:23.506Z,"   40"
2016-08-04T18:15:23.124Z,"   28"
2016-08-04T18:20:23.134Z,"   32"
2016-08-04T18:25:22.776Z,"   28"
2016-08-04T18:30:22.393Z,"   20"
2016-08-04T18:35:22.215Z,"   16"
2016-08-04T18:40:22.183Z,"    4"
2016-08-04T18:45:21.692Z,"    8"
2016-08-04T18:50:21.282Z,"   12"
2016-08-04T18:55:20.990Z,"    8"
2016-08-04T19:00:20.902Z,"    4"
2016-08-04T19:05:20.613Z,"    0"
2016-08-04T19:10:20.360Z,"    0"
2016-08-04T19:15:20.072Z,"    4"
2016-08-04T19:20:19.885Z,"    0"
2016-08-04T19:25:19.641Z,"    4"
2016-08-04T19:30:19.352Z,"    0"
2016-08-04T19:35:19.351Z,"    0"
2016-08-04T19:40:19.196Z,"    0"
2016-08-04T19:45:19.039Z,"    0"
2016-08-04T19:50:18.692Z,"    0"
2016-08-04T19:55:18.453Z,"    0"
2016-08-04T20:00:18.304Z,"    0"
2016-08-04T20:05:17.956Z,"    0"
2016-08-04T20:10:17.663Z,"    0"
2016-08-04T20:15:17.423Z,"    0"
2016-08-04T20:20:17.187Z,"    0"
2016-08-04T20:25:16.873Z,"    0"
2016-08-04T20:30:16.544Z,"    0"
2016-08-04T20:35:16.293Z,"    0"
2016-08-04T20:40:16.022Z,"    0"
2016-08-04T20:45:15.832Z,"    0"
2016-08-04T20:50:15.502Z,"    0"
2016-08-04T20:55:15.261Z,"    0"
2016-08-04T21:00:14.911Z,"    0"
2016-08-04T21:05:14.793Z,"    0"
2016-08-04T21:10:14.363Z,"    0"
2016-08-04T21:15:14.085Z,"    0"
2016-08-04T21:20:13.926Z,"    0"
2016-08-04T21:25:13.544Z,"    0"
2016-08-04T21:30:13.312Z,"    0"
2016-08-04T21:35:13.088Z,"    0"
2016-08-04T21:40:12.782Z,"    0"
2016-08-04T21:45:12.618Z,"    0"
2016-08-04T21:50:12.325Z,"    0"
2016-08-04T21:55:12.126Z,"    0"
2016-08-04T22:00:11.956Z,"    0"
2016-08-04T22:05:11.806Z,"    0"
2016-08-04T22:10:11.428Z,"    0"
2016-08-04T22:15:11.133Z,"    0"
2016-08-04T22:20:10.716Z,"    0"
2016-08-04T22:25:10.517Z,"    0"
2016-08-04T22:30:10.301Z,"    0"
2016-08-04T22:35:10.093Z,"    0"
2016-08-04T22:40:09.896Z,"    0"
2016-08-04T22:45:09.648Z,"    0"
2016-08-04T22:50:09.341Z,"    0"
2016-08-04T22:55:08.898Z,"    0"
2016-08-04T23:00:08.611Z,"    0"
2016-08-04T23:05:08.484Z,"    0"
2016-08-04T23:10:08.310Z,"    0"
2016-08-04T23:15:08.218Z,"    0"
2016-08-04T23:20:08.022Z,"    0"
2016-08-04T23:25:07.959Z,"    0"
2016-08-04T23:30:07.786Z,"    0"
2016-08-04T23:35:07.526Z,"    0"
2016-08-04T23:40:07.307Z,"    0"
2016-08-04T23:45:07.116Z,"    0"
2016-08-04T23:50:06.886Z,"    0"
